Time;durP1;ratioP1;P1;durP2;ratioP2;P2;SDS_P1;SDS_P2;PMS_P1;PMS_P2;Temp;Humidity;BMP_temperature;BMP_pressure;BME280_temperature;BME280_humidity;BME280_pressure;Samples;Min_cycle;Max_cycle;Signal;HPM_P1;HPM_P2
2021/06/24 07:33:10;;;;;;;16.75;14.18;;;16.10;99.90;;;;;;4917882;23;20087;-83
2021/06/24 07:35:37;;;;;;;16.08;14.55;;;16.20;99.90;;;;;;4874383;29;20048;-82
2021/06/24 07:38:04;;;;;;;14.27;12.93;;;16.40;99.90;;;;;;4888499;29;20044;-83
2021/06/24 07:40:31;;;;;;;14.95;13.25;;;16.60;99.90;;;;;;4875968;29;20087;-82
2021/06/24 07:42:59;;;;;;;15.23;13.63;;;16.70;99.90;;;;;;4875598;29;20587;-82
2021/06/24 07:45:27;;;;;;;16.23;13.68;;;16.90;99.90;;;;;;4870659;29;20077;-82
2021/06/24 07:47:54;;;;;;;15.15;13.65;;;17.00;99.90;;;;;;4863698;29;20061;-83
2021/06/24 07:50:21;;;;;;;13.98;12.57;;;17.10;99.90;;;;;;4878831;29;20120;-82
2021/06/24 07:52:48;;;;;;;15.15;13.57;;;17.30;99.90;;;;;;4871604;29;20061;-83
2021/06/24 07:55:15;;;;;;;13.15;11.95;;;17.40;99.90;;;;;;4864985;29;20041;-82
2021/06/24 07:57:45;;;;;;;13.48;12.15;;;17.60;99.90;;;;;;4869437;29;20053;-83
2021/06/24 08:00:13;;;;;;;14.40;12.98;;;17.60;99.90;;;;;;4879576;29;20112;-85
2021/06/24 08:02:40;;;;;;;12.38;11.27;;;17.70;99.90;;;;;;4863735;29;20046;-84
2021/06/24 08:05:07;;;;;;;12.77;11.57;;;17.70;99.90;;;;;;4874309;29;20094;-82
2021/06/24 08:07:35;;;;;;;12.77;11.35;;;17.50;99.90;;;;;;4872307;29;20105;-82
2021/06/24 08:10:03;;;;;;;12.83;11.53;;;17.50;99.90;;;;;;4876604;29;20060;-84
2021/06/24 08:12:31;;;;;;;12.87;11.43;;;17.50;99.90;;;;;;4868031;29;20049;-83
2021/06/24 08:15:00;;;;;;;13.70;12.27;;;17.60;99.90;;;;;;4875332;29;20061;-85
2021/06/24 08:17:27;;;;;;;13.00;11.70;;;17.70;99.90;;;;;;4864593;29;20421;-83
2021/06/24 08:19:54;;;;;;;12.60;11.30;;;17.70;99.90;;;;;;4878526;29;20049;-82
2021/06/24 08:22:23;;;;;;;12.82;11.63;;;17.80;99.90;;;;;;4873660;29;20500;-83
2021/06/24 08:24:51;;;;;;;12.57;11.38;;;17.80;99.90;;;;;;4876737;29;20065;-83
2021/06/24 08:27:18;;;;;;;13.85;12.40;;;17.90;99.90;;;;;;4865820;29;20049;-83
2021/06/24 08:29:45;;;;;;;12.05;10.95;;;17.80;99.90;;;;;;4880068;29;20402;-82
2021/06/24 08:32:12;;;;;;;12.73;11.43;;;17.70;99.90;;;;;;4875658;29;20053;-83
2021/06/24 08:34:39;;;;;;;12.27;11.13;;;17.70;99.90;;;;;;4879182;29;20081;-84
2021/06/24 08:37:06;;;;;;;12.85;11.65;;;17.60;99.90;;;;;;4875502;29;20474;-84
2021/06/24 08:39:34;;;;;;;12.93;11.63;;;17.50;99.90;;;;;;4864984;29;20057;-85
2021/06/24 08:42:02;;;;;;;10.50;9.60;;;17.50;99.90;;;;;;4877879;29;20136;-83
2021/06/24 08:44:29;;;;;;;11.13;10.02;;;17.50;99.90;;;;;;4877266;29;20180;-83
2021/06/24 08:46:58;;;;;;;11.75;10.55;;;17.50;99.90;;;;;;4878690;29;20101;-85
2021/06/24 08:49:27;;;;;;;11.77;10.52;;;17.70;99.90;;;;;;4875483;29;20438;-84
2021/06/24 08:51:56;;;;;;;10.63;9.63;;;17.70;99.90;;;;;;4874373;29;20053;-83
2021/06/24 08:54:24;;;;;;;10.25;9.27;;;17.80;99.90;;;;;;4874205;29;20061;-85
2021/06/24 08:56:51;;;;;;;8.18;7.38;;;17.80;99.90;;;;;;4871144;29;20579;-84
2021/06/24 08:59:18;;;;;;;8.85;8.05;;;17.90;99.90;;;;;;4873829;29;20053;-83
2021/06/24 09:01:53;;;;;;;9.57;8.48;;;18.00;99.90;;;;;;4872555;29;20057;-83
2021/06/24 09:04:27;;;;;;;9.48;8.18;;;18.10;99.90;;;;;;4869392;29;20489;-90
2021/06/24 09:07:04;;;;;;;9.10;8.30;;;18.20;99.90;;;;;;4871442;29;20057;-86
2021/06/24 09:09:33;;;;;;;9.23;8.40;;;18.20;99.90;;;;;;4871528;29;20041;-84
2021/06/24 09:12:05;;;;;;;8.32;7.53;;;18.00;99.90;;;;;;4867769;29;20053;-86
2021/06/24 09:14:42;;;;;;;9.30;8.40;;;18.00;99.90;;;;;;4870906;29;20053;-84
2021/06/24 09:17:12;;;;;;;8.48;7.78;;;18.10;99.90;;;;;;4873989;29;20097;-89
2021/06/24 09:19:42;;;;;;;8.27;6.57;;;18.10;99.90;;;;;;4873812;29;20494;-84
2021/06/24 09:22:14;;;;;;;8.93;8.05;;;18.10;99.90;;;;;;4865203;29;20053;-85
2021/06/24 09:24:43;;;;;;;8.88;7.95;;;18.20;99.90;;;;;;4876271;29;20472;-86
2021/06/24 09:27:19;;;;;;;9.05;7.25;;;18.30;99.90;;;;;;4871510;29;20461;-86
2021/06/24 09:30:07;;;;;;;8.10;7.40;;;18.30;99.90;;;;;;4873892;29;20049;-86
2021/06/24 09:32:38;;;;;;;;;;;18.30;99.90;;;;;;4876139;29;20124;-86
2021/06/24 09:35:07;;;;;;;8.07;7.28;;;18.20;99.90;;;;;;4873494;29;20306;-85
2021/06/24 09:38:08;;;;;;;7.32;6.63;;;18.20;99.90;;;;;;4875171;29;20103;-90
2021/06/24 09:40:56;;;;;;;9.32;8.25;;;18.10;99.90;;;;;;4870284;29;20045;-84
2021/06/24 09:43:22;;;;;;;8.30;7.17;;;18.10;99.90;;;;;;4885572;29;20117;-84
2021/06/24 09:46:16;;;;;;;8.68;7.88;;;18.10;99.90;;;;;;4871860;29;20282;-87
2021/06/24 09:48:47;;;;;;;8.23;7.43;;;18.10;99.90;;;;;;4876234;29;20059;-82
2021/06/24 09:51:22;;;;;;;8.32;7.53;;;18.10;99.90;;;;;;4873043;29;20054;-84
2021/06/24 09:53:51;;;;;;;7.60;6.90;;;18.20;99.90;;;;;;4875595;29;20105;-82
2021/06/24 09:56:44;;;;;;;7.72;7.03;;;18.30;99.90;;;;;;4876226;29;20415;-91
2021/06/24 09:59:12;;;;;;;7.55;6.75;;;18.40;99.90;;;;;;4871219;29;20402;-83
2021/06/24 10:01:49;;;;;;;9.10;7.10;;;18.40;99.90;;;;;;4871194;29;20044;-82
2021/06/24 10:04:24;;;;;;;7.43;6.72;;;18.50;99.90;;;;;;4873101;29;20049;-85
2021/06/24 10:06:54;;;;;;;7.95;6.93;;;18.60;99.90;;;;;;4873975;29;20113;-83
2021/06/24 10:09:22;;;;;;;8.25;6.25;;;18.60;99.90;;;;;;4874541;29;20057;-83
2021/06/24 10:11:49;;;;;;;7.90;7.10;;;18.70;99.90;;;;;;4873787;29;20509;-84
2021/06/24 10:14:16;;;;;;;6.70;6.00;;;18.70;99.90;;;;;;4876611;29;20053;-83
2021/06/24 10:16:47;;;;;;;6.90;6.20;;;18.70;99.90;;;;;;4876209;29;20109;-83
2021/06/24 10:19:16;;;;;;;6.57;5.97;;;18.80;99.90;;;;;;4878139;29;20397;-82
2021/06/24 10:21:49;;;;;;;7.03;6.43;;;18.90;99.90;;;;;;4880285;29;20045;-83
2021/06/24 10:24:19;;;;;;;7.50;6.10;;;19.00;99.90;;;;;;4878337;29;20580;-82
2021/06/24 10:26:51;;;;;;;8.18;5.63;;;19.20;99.90;;;;;;4878213;29;20056;-84
2021/06/24 10:29:21;;;;;;;5.95;5.45;;;19.40;99.90;;;;;;4876028;29;20053;-83
2021/06/24 10:31:51;;;;;;;6.85;6.18;;;19.40;99.90;;;;;;4874143;29;20513;-86
2021/06/24 10:34:20;;;;;;;8.00;6.50;;;19.40;99.90;;;;;;4864322;29;20085;-90
2021/06/24 10:37:23;;;;;;;7.78;6.10;;;19.40;99.90;;;;;;4870850;29;20057;-84
2021/06/24 10:39:52;;;;;;;5.45;4.95;;;19.50;99.90;;;;;;4820727;29;20606;-86
2021/06/24 10:42:21;;;;;;;5.72;5.13;;;19.50;99.90;;;;;;4808205;29;20063;-86
2021/06/24 10:44:55;;;;;;;6.57;5.07;;;19.40;99.90;;;;;;4820997;29;20485;-85
2021/06/24 10:47:37;;;;;;;5.70;5.07;;;19.40;99.90;;;;;;4804713;29;20518;-86
2021/06/24 10:50:26;;;;;;;5.72;5.18;;;19.40;99.90;;;;;;4805037;29;20534;-85
2021/06/24 10:53:02;;;;;;;5.45;4.95;;;19.40;99.90;;;;;;4817838;29;20093;-84
2021/06/24 10:55:36;;;;;;;6.00;5.32;;;19.40;99.90;;;;;;4801863;29;20820;-85
2021/06/24 10:58:28;;;;;;;6.03;4.85;;;19.30;99.90;;;;;;4814145;29;20054;-86
2021/06/24 11:00:55;;;;;;;5.05;4.57;;;19.30;99.90;;;;;;4797804;29;20155;-84
2021/06/24 11:03:31;;;;;;;5.88;5.10;;;19.30;99.90;;;;;;4801782;29;20581;-87
2021/06/24 11:06:16;;;;;;;5.65;4.68;;;19.40;99.90;;;;;;4804375;29;20400;-86
2021/06/24 11:08:44;;;;;;;5.72;4.85;;;19.50;99.90;;;;;;4802434;29;20567;-85
2021/06/24 11:11:16;;;;;;;6.65;5.53;;;19.70;99.90;;;;;;4806063;29;20081;-85
2021/06/24 11:13:49;;;;;;;5.25;4.70;;;19.70;99.90;;;;;;4805242;29;20086;-84
2021/06/24 11:16:16;;;;;;;5.47;4.57;;;19.70;99.90;;;;;;4860956;29;20508;-85
2021/06/24 11:18:48;;;;;;;6.15;4.65;;;19.60;99.90;;;;;;4872042;29;20045;-86
2021/06/24 11:21:29;;;;;;;5.38;4.88;;;19.50;99.90;;;;;;4877442;29;20515;-87
2021/06/24 11:24:06;;;;;;;4.68;4.22;;;19.50;99.90;;;;;;4878481;29;20523;-84
2021/06/24 11:26:36;;;;;;;5.90;4.72;;;19.70;99.90;;;;;;4891044;29;20049;-83
2021/06/24 11:31:37;;;;;;;5.35;4.40;;;20.00;99.90;;;;;;4878014;29;20105;-84
2021/06/24 11:34:29;;;;;;;5.40;4.93;;;20.00;99.90;;;;;;4877260;29;20053;-85
2021/06/24 11:36:59;;;;;;;5.20;4.70;;;20.00;99.90;;;;;;4894027;29;20053;-84
2021/06/24 11:39:35;;;;;;;5.07;4.38;;;20.00;99.90;;;;;;4876998;29;20061;-88
2021/06/24 11:42:07;;;;;;;6.10;4.30;;;20.00;99.90;;;;;;4879012;29;20057;-84
2021/06/24 11:44:42;;;;;;;6.38;5.03;;;20.10;99.90;;;;;;4890717;29;20581;-85
2021/06/24 11:47:16;;;;;;;5.40;4.90;;;20.20;99.90;;;;;;4875042;29;20057;-84
2021/06/24 12:04:03;;;;;;;;;;;20.60;99.90;;;;;;4881407;29;20128;-84
2021/06/24 12:07:05;;;;;;;6.17;4.10;;;20.60;99.00;;;;;;4876435;29;19924;-84
2021/06/24 12:09:43;;;;;;;5.22;4.60;;;20.70;99.50;;;;;;4861731;29;20351;-84
2021/06/24 12:12:16;;;;;;;5.03;4.38;;;20.70;99.90;;;;;;4866424;29;20059;-84
2021/06/24 12:14:44;;;;;;;4.55;3.95;;;20.80;99.90;;;;;;4880077;29;20127;-84
2021/06/24 12:17:12;;;;;;;4.22;3.83;;;20.80;99.90;;;;;;4879599;29;20545;-84
2021/06/24 12:20:09;;;;;;;3.90;3.45;;;20.70;99.90;;;;;;4876453;29;20050;-84
2021/06/24 12:22:51;;;;;;;3.80;3.40;;;20.60;99.90;;;;;;4853114;29;20537;-85
2021/06/24 12:25:20;;;;;;;3.90;3.50;;;20.60;99.90;;;;;;4873850;29;20444;-85
2021/06/24 12:27:55;;;;;;;3.55;2.97;;;20.60;99.90;;;;;;4885243;29;20053;-85
2021/06/24 12:30:34;;;;;;;3.92;3.38;;;20.50;99.90;;;;;;4878875;29;20105;-85
2021/06/24 12:33:07;;;;;;;3.25;2.92;;;20.50;99.90;;;;;;4880285;29;20049;-84
2021/06/24 12:35:43;;;;;;;3.97;3.30;;;20.50;99.90;;;;;;4889900;29;20041;-84
2021/06/24 12:38:22;;;;;;;2.28;2.03;;;20.40;99.90;;;;;;4880512;29;20045;-87
2021/06/24 12:40:55;;;;;;;3.28;2.92;;;20.40;99.90;;;;;;4880686;29;20100;-87
2021/06/24 12:43:30;;;;;;;4.93;4.53;;;20.40;99.90;;;;;;4875705;29;20053;-85
2021/06/24 12:45:59;;;;;;;8.27;5.55;;;20.40;99.90;;;;;;4872561;29;20474;-91
2021/06/24 12:48:36;;;;;;;5.93;4.90;;;20.50;99.90;;;;;;4894459;29;20057;-89
2021/06/24 12:51:17;;;;;;;6.47;5.32;;;20.70;99.90;;;;;;4881045;29;20196;-90
2021/06/24 12:53:45;;;;;;;7.75;5.95;;;20.90;99.90;;;;;;4880958;29;20048;-87
2021/06/24 12:56:38;;;;;;;5.70;5.10;;;20.90;99.90;;;;;;4879787;29;20136;-86
2021/06/24 12:59:09;;;;;;;6.28;5.55;;;20.80;99.90;;;;;;4865730;29;20079;-89
2021/06/24 13:01:42;;;;;;;7.15;5.65;;;20.60;99.90;;;;;;4877053;29;20068;-86
2021/06/24 13:04:14;;;;;;;7.75;6.65;;;20.60;99.90;;;;;;4893865;29;20061;-90
2021/06/24 13:06:49;;;;;;;5.97;5.20;;;20.60;99.90;;;;;;4878553;29;20052;-87
2021/06/24 13:09:18;;;;;;;6.10;5.47;;;20.60;99.90;;;;;;4879906;29;20068;-88
2021/06/24 13:11:55;;;;;;;6.75;5.40;;;20.50;99.90;;;;;;4879489;29;20045;-87
2021/06/24 13:14:25;;;;;;;8.25;6.13;;;20.50;99.90;;;;;;4876516;29;20053;-88
2021/06/24 13:16:56;;;;;;;5.82;5.22;;;20.30;99.90;;;;;;4878910;29;20124;-88
2021/06/24 13:19:25;;;;;;;8.15;5.93;;;20.30;99.90;;;;;;4873080;29;20046;-87
2021/06/24 13:21:53;;;;;;;;;;;20.20;99.90;;;;;;4885764;29;20057;-89
2021/06/24 13:24:20;;;;;;;6.22;5.18;;;20.00;99.90;;;;;;4876246;29;19924;-86
2021/06/24 13:26:49;;;;;;;6.10;5.13;;;19.80;99.90;;;;;;4878062;29;20093;-85
2021/06/24 13:29:22;;;;;;;7.22;5.40;;;19.80;99.90;;;;;;4878910;29;20049;-91
2021/06/24 13:31:53;;;;;;;5.93;5.32;;;19.70;99.90;;;;;;4879109;29;20118;-85
2021/06/24 13:34:24;;;;;;;5.95;5.32;;;19.60;99.90;;;;;;4878927;29;20124;-85
2021/06/24 13:36:52;;;;;;;6.13;4.57;;;19.60;99.90;;;;;;4879147;29;20057;-86
2021/06/24 13:39:32;;;;;;;5.53;4.10;;;19.60;99.90;;;;;;4880774;29;20048;-88
2021/06/24 13:42:00;;;;;;;5.75;3.50;;;19.60;99.90;;;;;;4878689;29;20532;-87
2021/06/24 13:44:27;;;;;;;4.97;3.30;;;19.40;99.90;;;;;;4878935;29;20057;-85
2021/06/24 13:46:55;;;;;;;4.72;3.25;;;19.30;99.90;;;;;;4879533;29;20570;-85
2021/06/24 13:49:23;;;;;;;3.75;2.95;;;19.20;99.90;;;;;;4877602;29;20055;-86
2021/06/24 13:51:53;;;;;;;3.45;2.78;;;19.20;99.90;;;;;;4878411;29;20064;-84
2021/06/24 13:54:25;;;;;;;4.53;3.50;;;19.10;99.90;;;;;;4879182;29;20057;-86
2021/06/24 13:56:55;;;;;;;5.10;3.20;;;19.00;99.90;;;;;;4878330;29;20064;-87
2021/06/24 13:59:23;;;;;;;5.20;3.50;;;18.90;99.90;;;;;;4878485;29;20049;-85
2021/06/24 14:01:51;;;;;;;4.72;3.92;;;18.90;99.90;;;;;;4879142;29;20121;-87
2021/06/24 14:04:18;;;;;;;4.03;3.33;;;18.80;99.90;;;;;;4876362;29;20508;-85
2021/06/24 14:06:49;;;;;;;5.40;3.45;;;18.80;99.90;;;;;;4863894;29;20129;-86
2021/06/24 14:09:19;;;;;;;4.07;3.50;;;18.90;99.90;;;;;;4879542;29;20044;-86
2021/06/24 14:11:51;;;;;;;3.92;2.78;;;18.80;99.90;;;;;;4877330;29;20048;-86
2021/06/24 14:14:19;;;;;;;3.15;2.60;;;18.70;99.90;;;;;;4874976;29;20053;-85
2021/06/24 14:16:46;;;;;;;4.60;3.55;;;18.60;99.90;;;;;;4879996;29;20113;-84
2021/06/24 14:19:18;;;;;;;4.72;3.55;;;18.60;99.90;;;;;;4878735;29;20088;-84
2021/06/24 14:21:46;;;;;;;5.07;3.70;;;18.70;99.90;;;;;;4878962;29;20064;-85
2021/06/24 14:24:12;;;;;;;4.25;3.63;;;18.60;99.90;;;;;;4877581;29;20056;-86
2021/06/24 14:26:40;;;;;;;4.22;3.72;;;18.60;99.90;;;;;;4877034;29;20105;-85
2021/06/24 14:29:08;;;;;;;4.25;3.17;;;18.60;99.90;;;;;;4878088;29;20156;-85
2021/06/24 14:31:36;;;;;;;;;;;18.60;99.90;;;;;;4879758;29;20053;-85
2021/06/24 14:34:04;;;;;;;3.65;2.75;;;18.60;99.90;;;;;;4876697;29;19924;-86
2021/06/24 14:36:32;;;;;;;2.63;2.42;;;18.60;99.90;;;;;;4878488;29;20041;-85
2021/06/24 14:38:59;;;;;;;3.60;2.00;;;18.60;99.90;;;;;;4877944;29;20061;-85
2021/06/24 14:41:26;;;;;;;1.85;1.65;;;18.60;99.90;;;;;;4882669;29;20172;-84
2021/06/24 14:43:54;;;;;;;2.20;1.52;;;18.60;99.90;;;;;;4883532;29;20113;-89
2021/06/24 14:46:21;;;;;;;2.15;1.80;;;18.50;99.90;;;;;;4880326;29;20469;-87
2021/06/24 14:48:48;;;;;;;2.72;1.88;;;18.40;99.90;;;;;;4879509;29;20057;-85
2021/06/24 14:51:16;;;;;;;1.90;1.73;;;18.30;99.90;;;;;;4882724;29;20464;-88
2021/06/24 14:53:43;;;;;;;3.22;2.45;;;18.20;99.90;;;;;;4880340;29;20093;-86
2021/06/24 14:56:18;;;;;;;3.03;2.50;;;18.20;99.90;;;;;;4881766;29;20124;-86
2021/06/24 14:58:47;;;;;;;4.00;2.38;;;18.10;99.90;;;;;;4881602;29;20053;-87
2021/06/24 15:01:15;;;;;;;3.67;2.67;;;18.10;99.90;;;;;;4883432;29;20405;-84
2021/06/24 15:03:42;;;;;;;3.45;2.70;;;18.00;99.90;;;;;;4881010;29;20052;-85
2021/06/24 15:06:10;;;;;;;3.08;2.78;;;18.00;99.90;;;;;;4876099;29;20057;-88
2021/06/24 15:08:38;;;;;;;3.33;2.38;;;18.00;99.90;;;;;;4877570;29;20060;-87
2021/06/24 15:11:07;;;;;;;2.47;2.13;;;18.10;99.90;;;;;;4875555;29;20536;-88
2021/06/24 15:13:34;;;;;;;2.10;1.90;;;18.20;99.90;;;;;;4873235;29;20072;-90
2021/06/24 15:16:01;;;;;;;2.92;2.33;;;18.20;99.90;;;;;;4875817;29;20056;-86
2021/06/24 15:18:28;;;;;;;2.63;1.90;;;18.20;99.90;;;;;;4870191;29;20468;-86
2021/06/24 15:20:55;;;;;;;2.20;1.90;;;18.30;99.90;;;;;;4881655;29;20064;-85
2021/06/24 15:23:22;;;;;;;2.30;1.90;;;18.40;99.90;;;;;;4873325;29;20118;-87
2021/06/24 15:25:49;;;;;;;2.67;1.73;;;18.40;99.90;;;;;;4876742;29;20105;-85
2021/06/24 15:28:18;;;;;;;1.80;1.70;;;18.40;99.90;;;;;;4867896;29;20053;-87
2021/06/24 15:30:45;;;;;;;2.63;1.48;;;18.50;99.90;;;;;;4875199;29;20049;-87
2021/06/24 15:33:12;;;;;;;1.75;1.58;;;18.60;99.90;;;;;;4874232;29;20044;-86
2021/06/24 15:35:39;;;;;;;1.95;1.52;;;18.70;99.90;;;;;;4870124;29;20053;-88
2021/06/24 15:38:08;;;;;;;1.50;1.40;;;18.70;99.90;;;;;;4878095;29;20045;-86
2021/06/24 15:40:34;;;;;;;2.05;1.50;;;18.90;99.90;;;;;;4876872;29;20052;-86
2021/06/24 15:43:02;;;;;;;1.60;1.50;;;18.90;99.90;;;;;;4872958;29;20060;-89
2021/06/24 15:45:29;;;;;;;2.53;1.75;;;19.00;99.90;;;;;;4892696;29;20448;-86
2021/06/24 15:47:57;;;;;;;4.07;1.83;;;19.00;99.90;;;;;;4872141;29;20108;-85
2021/06/24 15:50:27;;;;;;;2.33;1.45;;;19.00;99.90;;;;;;4871610;29;20045;-88
2021/06/24 15:52:55;;;;;;;1.83;1.40;;;19.10;99.90;;;;;;4875286;29;20116;-87
2021/06/24 15:55:23;;;;;;;1.60;1.40;;;19.10;99.90;;;;;;4876551;29;20489;-87
2021/06/24 15:57:50;;;;;;;1.97;1.33;;;19.30;99.90;;;;;;4875226;29;20101;-95
2021/06/24 16:00:20;;;;;;;2.10;1.50;;;19.40;99.90;;;;;;4876574;29;20301;-87
2021/06/24 16:02:47;;;;;;;1.83;1.50;;;19.50;99.90;;;;;;4875547;29;20052;-87
2021/06/24 16:05:15;;;;;;;1.90;1.10;;;19.50;99.90;;;;;;4877673;29;20055;-86
2021/06/24 16:07:42;;;;;;;1.70;1.60;;;19.60;99.90;;;;;;4878102;29;20057;-92
2021/06/24 16:10:12;;;;;;;1.42;1.33;;;19.70;99.90;;;;;;4876138;29;20053;-88
2021/06/24 16:12:39;;;;;;;1.92;1.35;;;19.70;99.90;;;;;;4870680;29;20538;-87
2021/06/24 16:15:10;;;;;;;2.63;1.25;;;19.70;99.90;;;;;;4874918;29;20049;-87
2021/06/24 16:17:39;;;;;;;1.33;1.20;;;19.80;99.90;;;;;;4876946;29;20398;-87
2021/06/24 16:20:12;;;;;;;2.63;1.20;;;19.90;99.90;;;;;;4875725;29;20474;-84
2021/06/24 16:22:39;;;;;;;1.92;1.20;;;19.80;99.90;;;;;;4866573;29;20505;-86
2021/06/24 16:25:09;;;;;;;4.18;1.40;;;20.00;99.90;;;;;;4874309;29;20100;-87
2021/06/24 16:27:40;;;;;;;1.50;1.30;;;20.00;99.90;;;;;;4869595;29;20058;-87
2021/06/24 16:30:08;;;;;;;1.60;1.33;;;20.10;99.90;;;;;;4866828;29;20049;-86
2021/06/24 16:32:35;;;;;;;1.50;1.15;;;20.10;99.90;;;;;;4874801;29;20044;-86
2021/06/24 16:35:04;;;;;;;1.40;1.17;;;20.20;99.90;;;;;;4875609;29;20049;-88
2021/06/24 16:37:33;;;;;;;1.20;1.10;;;20.30;99.90;;;;;;4874670;29;20104;-87
2021/06/24 16:40:01;;;;;;;1.15;1.05;;;20.40;99.90;;;;;;4870885;29;20057;-86
2021/06/24 16:42:28;;;;;;;1.77;1.15;;;20.40;99.90;;;;;;4875482;29;20463;-87
2021/06/24 16:44:55;;;;;;;1.20;1.10;;;20.60;99.90;;;;;;4874509;29;20057;-85
2021/06/24 16:47:21;;;;;;;1.42;1.00;;;20.70;99.90;;;;;;4871071;29;20494;-87
2021/06/24 16:49:48;;;;;;;1.17;0.82;;;20.70;99.90;;;;;;4890618;29;20049;-85
2021/06/24 16:52:16;;;;;;;2.22;1.10;;;20.80;99.90;;;;;;4874992;29;20100;-87
2021/06/24 16:54:43;;;;;;;1.42;0.88;;;20.90;99.90;;;;;;4875339;29;20177;-87
2021/06/24 16:57:10;;;;;;;0.80;0.80;;;20.70;99.90;;;;;;4868196;29;20081;-85
2021/06/24 16:59:37;;;;;;;2.08;1.05;;;20.50;99.90;;;;;;4879159;29;20124;-84
2021/06/24 17:02:07;;;;;;;1.70;0.90;;;20.30;99.90;;;;;;4874395;29;20477;-85
2021/06/24 17:04:44;;;;;;;1.52;1.08;;;20.20;99.90;;;;;;4885952;29;20057;-81
2021/06/24 17:07:16;;;;;;;1.75;0.90;;;20.20;99.90;;;;;;4871254;29;20045;-82
2021/06/24 17:09:44;;;;;;;3.47;1.10;;;20.30;99.90;;;;;;4874637;29;20045;-81
2021/06/24 17:12:12;;;;;;;1.60;1.10;;;20.20;99.90;;;;;;4875060;29;20508;-83
2021/06/24 17:14:40;;;;;;;1.00;0.85;;;20.20;99.90;;;;;;4872016;29;20051;-83
2021/06/24 17:17:07;;;;;;;1.33;1.20;;;20.20;99.90;;;;;;4875233;29;20512;-84
2021/06/24 17:19:34;;;;;;;1.52;1.20;;;20.20;99.90;;;;;;4870115;29;20053;-83
2021/06/24 17:22:05;;;;;;;3.60;1.27;;;20.20;99.90;;;;;;4874363;29;20053;-85
2021/06/24 17:24:32;;;;;;;1.85;1.55;;;20.20;99.90;;;;;;4873877;29;20164;-83
2021/06/24 17:27:02;;;;;;;1.92;1.15;;;20.10;99.90;;;;;;4875722;29;20061;-84
2021/06/24 17:29:32;;;;;;;1.65;1.23;;;20.10;99.90;;;;;;4874154;29;20485;-82
2021/06/24 17:32:00;;;;;;;2.33;1.42;;;20.30;99.90;;;;;;4872972;29;20085;-83
2021/06/24 17:34:28;;;;;;;2.97;1.92;;;20.30;99.90;;;;;;4873352;29;20101;-84
2021/06/24 17:36:55;;;;;;;1.52;1.42;;;20.20;99.90;;;;;;4873488;29;20113;-84
2021/06/24 17:39:22;;;;;;;1.50;1.30;;;20.10;99.90;;;;;;4869653;29;20049;-87
2021/06/24 17:41:49;;;;;;;1.20;1.10;;;20.00;99.90;;;;;;4873419;29;20455;-83
2021/06/24 17:44:17;;;;;;;1.75;1.15;;;20.00;99.90;;;;;;4870560;29;20103;-84
2021/06/24 17:46:44;;;;;;;1.52;1.25;;;20.00;99.90;;;;;;4866198;29;20129;-83
2021/06/24 17:49:15;;;;;;;1.63;1.00;;;20.00;99.90;;;;;;4883385;29;20041;-82
2021/06/24 17:51:42;;;;;;;1.88;1.30;;;19.90;99.90;;;;;;4871006;29;20413;-83
2021/06/24 17:54:09;;;;;;;1.17;1.08;;;20.10;99.90;;;;;;4887498;29;20089;-83
2021/06/24 17:56:36;;;;;;;1.27;1.08;;;20.40;99.90;;;;;;4889293;29;20044;-82
2021/06/24 17:59:03;;;;;;;0.95;0.90;;;20.80;99.90;;;;;;4872885;29;20116;-82
2021/06/24 18:01:30;;;;;;;0.98;0.80;;;21.20;99.90;;;;;;4871112;29;20053;-82
2021/06/24 18:03:57;;;;;;;1.40;0.65;;;22.00;99.90;;;;;;4873865;29;20512;-82
2021/06/24 18:06:24;;;;;;;0.60;0.60;;;22.80;99.90;;;;;;4870539;29;20093;-84
2021/06/24 18:08:50;;;;;;;0.50;0.50;;;23.30;99.90;;;;;;4869971;29;20107;-82
2021/06/24 18:11:17;;;;;;;0.70;0.50;;;23.70;99.90;;;;;;4871953;29;20056;-83
2021/06/24 18:13:44;;;;;;;0.40;0.40;;;24.50;99.90;;;;;;4873757;29;20101;-83
2021/06/24 18:16:11;;;;;;;0.75;0.60;;;25.10;99.90;;;;;;4872677;29;20057;-84
2021/06/24 18:18:38;;;;;;;8.63;0.50;;;25.50;99.90;;;;;;4872462;29;20053;-85
2021/06/24 18:21:07;;;;;;;0.55;0.50;;;25.60;99.90;;;;;;4882009;29;20113;-86
2021/06/24 18:23:35;;;;;;;0.50;0.50;;;25.30;99.90;;;;;;4875881;29;20712;-85
2021/06/24 18:26:03;;;;;;;1.33;0.60;;;25.00;99.90;;;;;;4869443;29;20121;-85
2021/06/24 18:28:30;;;;;;;0.40;0.40;;;24.90;99.90;;;;;;4872905;29;20494;-86
2021/06/24 18:30:58;;;;;;;0.77;0.40;;;25.00;99.90;;;;;;4870137;29;20117;-86
2021/06/24 18:33:25;;;;;;;0.77;0.60;;;24.80;99.90;;;;;;4868867;29;20045;-85
2021/06/24 18:35:52;;;;;;;0.50;0.50;;;24.20;99.90;;;;;;4872263;29;20061;-87
2021/06/24 18:38:19;;;;;;;0.60;0.60;;;24.00;99.90;;;;;;4873374;29;20052;-86
2021/06/24 18:40:46;;;;;;;0.57;0.57;;;24.10;99.90;;;;;;4872015;29;20596;-86
2021/06/24 18:43:13;;;;;;;1.23;0.60;;;24.20;99.90;;;;;;4873162;29;20109;-84
2021/06/24 18:45:40;;;;;;;0.70;0.70;;;24.00;99.90;;;;;;4872531;29;20053;-83
2021/06/24 18:48:08;;;;;;;0.40;0.40;;;24.10;99.90;;;;;;4887314;29;20098;-83
2021/06/24 18:50:35;;;;;;;0.85;0.50;;;24.30;99.90;;;;;;4873789;29;20102;-85
2021/06/24 18:53:02;;;;;;;0.50;0.50;;;24.50;99.90;;;;;;4871923;29;20524;-83
2021/06/24 18:55:39;;;;;;;0.50;0.50;;;24.40;99.90;;;;;;4871176;29;20061;-84
2021/06/24 18:58:10;;;;;;;1.15;0.63;;;23.90;99.90;;;;;;4872781;29;20184;-83
2021/06/24 19:00:38;;;;;;;0.98;0.60;;;23.50;99.90;;;;;;4867347;29;20545;-83
2021/06/24 19:03:08;;;;;;;1.10;0.80;;;23.00;99.90;;;;;;4868131;29;20109;-85
2021/06/24 19:05:36;;;;;;;4.00;0.85;;;22.70;99.90;;;;;;4868671;29;20118;-84
2021/06/24 19:08:04;;;;;;;0.80;0.80;;;22.80;99.90;;;;;;4874124;29;20124;-84
2021/06/24 19:10:32;;;;;;;;;;;22.70;99.90;;;;;;4874399;29;20049;-86
2021/06/24 19:12:59;;;;;;;1.07;0.97;;;22.40;99.90;;;;;;4868555;29;19954;-85
2021/06/24 19:15:26;;;;;;;1.77;1.00;;;22.00;99.90;;;;;;4867978;29;20279;-84
2021/06/24 19:17:53;;;;;;;1.52;1.00;;;21.70;99.90;;;;;;4873822;29;20432;-83
2021/06/24 19:20:20;;;;;;;1.20;1.10;;;21.20;99.90;;;;;;4866416;29;20061;-83
2021/06/24 19:22:47;;;;;;;2.13;1.23;;;21.10;99.90;;;;;;4866418;29;20097;-84
2021/06/24 19:25:14;;;;;;;1.77;1.48;;;20.80;99.90;;;;;;4871994;29;20053;-85
2021/06/24 19:27:42;;;;;;;1.10;1.00;;;20.50;99.90;;;;;;4870920;29;20097;-83
2021/06/24 19:30:10;;;;;;;1.40;1.30;;;20.30;99.90;;;;;;4869633;29;20081;-85
2021/06/24 19:32:37;;;;;;;1.80;1.35;;;20.10;99.90;;;;;;4876358;29;20089;-84
2021/06/24 19:35:05;;;;;;;1.35;1.20;;;19.80;99.90;;;;;;4876750;29;20049;-85
2021/06/24 19:37:32;;;;;;;1.30;1.20;;;19.60;99.90;;;;;;4877441;29;20052;-82
2021/06/24 19:40:02;;;;;;;1.30;1.20;;;19.40;99.90;;;;;;4877947;29;20081;-85
2021/06/24 19:42:28;;;;;;;1.92;1.40;;;19.20;99.90;;;;;;4876857;29;20619;-84
2021/06/24 19:44:55;;;;;;;2.95;1.40;;;19.10;99.90;;;;;;4877688;29;20080;-83
2021/06/24 19:47:22;;;;;;;1.63;1.50;;;18.80;99.90;;;;;;4878730;29;20149;-83
2021/06/24 19:49:49;;;;;;;1.65;1.55;;;18.70;99.90;;;;;;4876313;29;20516;-84
2021/06/24 19:52:16;;;;;;;2.08;1.88;;;18.60;99.90;;;;;;4874412;29;20101;-82
2021/06/24 19:54:43;;;;;;;2.15;1.95;;;18.40;99.90;;;;;;4877085;29;20084;-85
2021/06/24 19:57:10;;;;;;;2.42;1.63;;;18.30;99.90;;;;;;4873615;29;20592;-85
2021/06/24 19:59:37;;;;;;;2.45;2.25;;;18.10;99.90;;;;;;4873938;29;20053;-85
2021/06/24 20:02:04;;;;;;;2.35;2.15;;;17.90;99.90;;;;;;4874739;29;20049;-84
2021/06/24 20:04:31;;;;;;;3.70;2.30;;;17.80;99.90;;;;;;4890464;29;20128;-84
2021/06/24 20:06:58;;;;;;;2.60;2.40;;;17.60;99.90;;;;;;4875091;29;20136;-85
2021/06/24 20:09:25;;;;;;;2.42;2.15;;;17.60;99.90;;;;;;4869235;29;20139;-84
2021/06/24 20:11:55;;;;;;;2.33;2.10;;;17.50;99.90;;;;;;4873850;29;20420;-86
2021/06/24 20:14:22;;;;;;;2.75;1.90;;;17.40;99.90;;;;;;4873929;29;20588;-88
2021/06/24 20:16:49;;;;;;;2.30;1.95;;;17.30;99.90;;;;;;4871641;29;20098;-84
2021/06/24 20:19:16;;;;;;;3.53;2.50;;;17.30;99.90;;;;;;4875915;29;20556;-84
2021/06/24 20:21:45;;;;;;;2.17;2.03;;;17.10;99.90;;;;;;4874462;29;20045;-85
2021/06/24 20:24:14;;;;;;;2.40;2.20;;;17.00;99.90;;;;;;4874225;29;20065;-84
2021/06/24 20:26:41;;;;;;;2.90;2.10;;;17.00;99.90;;;;;;4872649;29;20112;-86
2021/06/24 20:29:07;;;;;;;2.30;2.10;;;17.00;99.90;;;;;;4874995;29;20501;-87
2021/06/24 20:31:34;;;;;;;4.03;2.53;;;16.90;99.90;;;;;;4889822;29;20057;-85
2021/06/24 20:34:01;;;;;;;2.25;2.05;;;16.90;99.90;;;;;;4875254;29;20244;-84
2021/06/24 20:36:28;;;;;;;2.53;2.33;;;16.90;99.90;;;;;;4886369;29;20061;-84
2021/06/24 20:38:55;;;;;;;2.90;2.70;;;16.80;99.90;;;;;;4874638;29;20057;-85
2021/06/24 20:41:22;;;;;;;3.33;2.58;;;16.80;99.90;;;;;;4873688;29;20049;-85
2021/06/24 20:43:50;;;;;;;4.15;2.90;;;16.70;99.90;;;;;;4870715;29;20076;-85
2021/06/24 20:46:17;;;;;;;3.35;2.85;;;16.70;99.90;;;;;;4872110;29;20084;-83
2021/06/24 20:48:44;;;;;;;4.10;3.22;;;16.60;99.90;;;;;;4873869;29;20140;-84